sensor_id;sensor_type;location;lat;lon;timestamp;P1;durP1;ratioP1;P2;durP2;ratioP2
37655;SDS011;23498;50.958;3.124;2022-09-01T00:01:16;6.68;;;3.33;;
37655;SDS011;23498;50.958;3.124;2022-09-01T00:03:49;7.10;;;3.10;;
37655;SDS011;23498;50.958;3.124;2022-09-01T00:06:22;5.33;;;2.97;;
37655;SDS011;23498;50.958;3.124;2022-09-01T00:08:49;9.57;;;4.10;;
37655;SDS011;23498;50.958;3.124;2022-09-01T00:11:15;12.23;;;4.93;;
37655;SDS011;23498;50.958;3.124;2022-09-01T00:13:41;15.00;;;5.00;;
37655;SDS011;23498;50.958;3.124;2022-09-01T00:16:07;14.70;;;5.03;;
37655;SDS011;23498;50.958;3.124;2022-09-01T00:18:36;13.25;;;5.60;;
37655;SDS011;23498;50.958;3.124;2022-09-01T00:21:02;14.73;;;5.78;;
37655;SDS011;23498;50.958;3.124;2022-09-01T00:23:28;13.02;;;5.35;;
37655;SDS011;23498;50.958;3.124;2022-09-01T00:25:54;10.75;;;4.82;;
37655;SDS011;23498;50.958;3.124;2022-09-01T00:28:20;9.75;;;4.13;;
37655;SDS011;23498;50.958;3.124;2022-09-01T00:30:46;9.68;;;3.50;;
37655;SDS011;23498;50.958;3.124;2022-09-01T00:33:12;5.95;;;3.58;;
37655;SDS011;23498;50.958;3.124;2022-09-01T00:35:38;6.55;;;3.40;;
37655;SDS011;23498;50.958;3.124;2022-09-01T00:38:04;8.35;;;3.30;;
37655;SDS011;23498;50.958;3.124;2022-09-01T00:40:30;9.15;;;3.47;;
37655;SDS011;23498;50.958;3.124;2022-09-01T00:42:56;8.52;;;3.65;;
37655;SDS011;23498;50.958;3.124;2022-09-01T00:45:22;7.03;;;3.15;;
37655;SDS011;23498;50.958;3.124;2022-09-01T00:47:48;6.05;;;3.10;;
37655;SDS011;23498;50.958;3.124;2022-09-01T00:50:16;8.07;;;3.35;;
37655;SDS011;23498;50.958;3.124;2022-09-01T00:52:49;8.60;;;3.17;;
37655;SDS011;23498;50.958;3.124;2022-09-01T00:55:49;8.27;;;3.85;;
37655;SDS011;23498;50.958;3.124;2022-09-01T00:58:08;8.27;;;3.90;;
37655;SDS011;23498;50.958;3.124;2022-09-01T01:00:36;7.15;;;3.50;;
37655;SDS011;23498;50.958;3.124;2022-09-01T01:03:05;7.65;;;3.53;;
37655;SDS011;23498;50.958;3.124;2022-09-01T01:05:32;8.80;;;4.10;;
37655;SDS011;23498;50.958;3.124;2022-09-01T01:08:01;12.63;;;4.72;;
37655;SDS011;23498;50.958;3.124;2022-09-01T01:10:28;12.93;;;5.00;;
37655;SDS011;23498;50.958;3.124;2022-09-01T01:12:56;9.48;;;4.35;;
37655;SDS011;23498;50.958;3.124;2022-09-01T01:15:26;13.25;;;4.85;;
37655;SDS011;23498;50.958;3.124;2022-09-01T01:17:52;10.77;;;4.90;;
37655;SDS011;23498;50.958;3.124;2022-09-01T01:20:18;12.77;;;5.50;;
37655;SDS011;23498;50.958;3.124;2022-09-01T01:28:17;16.17;;;6.35;;
37655;SDS011;23498;50.958;3.124;2022-09-01T01:30:45;14.30;;;5.25;;
37655;SDS011;23498;50.958;3.124;2022-09-01T01:33:15;13.95;;;5.47;;
37655;SDS011;23498;50.958;3.124;2022-09-01T01:35:41;14.40;;;5.28;;
37655;SDS011;23498;50.958;3.124;2022-09-01T01:38:07;12.43;;;5.32;;
37655;SDS011;23498;50.958;3.124;2022-09-01T01:40:35;20.05;;;6.40;;
37655;SDS011;23498;50.958;3.124;2022-09-01T01:43:03;14.65;;;6.00;;
37655;SDS011;23498;50.958;3.124;2022-09-01T01:45:29;18.90;;;6.15;;
37655;SDS011;23498;50.958;3.124;2022-09-01T01:47:56;18.63;;;6.07;;
37655;SDS011;23498;50.958;3.124;2022-09-01T01:50:22;13.18;;;5.40;;
37655;SDS011;23498;50.958;3.124;2022-09-01T01:52:49;15.55;;;5.25;;
37655;SDS011;23498;50.958;3.124;2022-09-01T01:55:16;14.85;;;5.90;;
37655;SDS011;23498;50.958;3.124;2022-09-01T01:57:43;17.40;;;6.00;;
37655;SDS011;23498;50.958;3.124;2022-09-01T02:00:15;15.88;;;6.25;;
37655;SDS011;23498;50.958;3.124;2022-09-01T02:02:43;14.90;;;6.35;;
37655;SDS011;23498;50.958;3.124;2022-09-01T02:05:13;14.65;;;6.28;;
37655;SDS011;23498;50.958;3.124;2022-09-01T02:07:44;15.52;;;6.22;;
37655;SDS011;23498;50.958;3.124;2022-09-01T02:10:11;16.75;;;5.85;;
37655;SDS011;23498;50.958;3.124;2022-09-01T02:12:38;15.82;;;6.15;;
37655;SDS011;23498;50.958;3.124;2022-09-01T02:15:05;15.77;;;5.70;;
37655;SDS011;23498;50.958;3.124;2022-09-01T02:17:31;16.73;;;6.22;;
37655;SDS011;23498;50.958;3.124;2022-09-01T02:19:57;18.73;;;6.18;;
37655;SDS011;23498;50.958;3.124;2022-09-01T02:22:24;16.60;;;5.90;;
37655;SDS011;23498;50.958;3.124;2022-09-01T02:24:50;18.95;;;6.88;;
37655;SDS011;23498;50.958;3.124;2022-09-01T02:27:16;16.83;;;6.55;;
37655;SDS011;23498;50.958;3.124;2022-09-01T02:29:47;14.07;;;5.65;;
37655;SDS011;23498;50.958;3.124;2022-09-01T02:32:15;16.80;;;5.88;;
37655;SDS011;23498;50.958;3.124;2022-09-01T02:34:43;15.38;;;5.78;;
37655;SDS011;23498;50.958;3.124;2022-09-01T02:37:10;13.70;;;4.93;;
37655;SDS011;23498;50.958;3.124;2022-09-01T02:39:36;12.35;;;4.75;;
37655;SDS011;23498;50.958;3.124;2022-09-01T02:42:02;8.90;;;3.92;;
37655;SDS011;23498;50.958;3.124;2022-09-01T02:44:28;11.00;;;4.53;;
37655;SDS011;23498;50.958;3.124;2022-09-01T02:46:56;11.00;;;4.07;;
37655;SDS011;23498;50.958;3.124;2022-09-01T02:49:23;13.07;;;5.13;;
37655;SDS011;23498;50.958;3.124;2022-09-01T02:51:50;12.50;;;4.70;;
37655;SDS011;23498;50.958;3.124;2022-09-01T02:54:18;13.63;;;5.38;;
37655;SDS011;23498;50.958;3.124;2022-09-01T02:56:46;12.90;;;5.80;;
37655;SDS011;23498;50.958;3.124;2022-09-01T02:59:14;20.02;;;6.22;;
37655;SDS011;23498;50.958;3.124;2022-09-01T03:01:40;15.85;;;5.80;;
37655;SDS011;23498;50.958;3.124;2022-09-01T03:04:06;14.35;;;5.85;;
37655;SDS011;23498;50.958;3.124;2022-09-01T03:06:33;16.08;;;6.47;;
37655;SDS011;23498;50.958;3.124;2022-09-01T03:09:03;20.00;;;6.97;;
37655;SDS011;23498;50.958;3.124;2022-09-01T03:11:30;17.55;;;6.72;;
37655;SDS011;23498;50.958;3.124;2022-09-01T03:13:56;12.93;;;5.50;;
37655;SDS011;23498;50.958;3.124;2022-09-01T03:16:22;14.35;;;5.45;;
37655;SDS011;23498;50.958;3.124;2022-09-01T03:18:49;11.18;;;4.57;;
37655;SDS011;23498;50.958;3.124;2022-09-01T03:21:15;10.55;;;4.43;;
37655;SDS011;23498;50.958;3.124;2022-09-01T03:23:42;9.27;;;4.18;;
37655;SDS011;23498;50.958;3.124;2022-09-01T03:26:08;9.38;;;3.95;;
37655;SDS011;23498;50.958;3.124;2022-09-01T03:28:34;10.57;;;4.10;;
37655;SDS011;23498;50.958;3.124;2022-09-01T03:31:02;11.25;;;4.03;;
37655;SDS011;23498;50.958;3.124;2022-09-01T03:33:28;9.70;;;3.50;;
37655;SDS011;23498;50.958;3.124;2022-09-01T03:35:54;9.65;;;3.30;;
37655;SDS011;23498;50.958;3.124;2022-09-01T03:38:21;11.55;;;3.67;;
37655;SDS011;23498;50.958;3.124;2022-09-01T03:41:06;6.13;;;3.20;;
37655;SDS011;23498;50.958;3.124;2022-09-01T03:43:32;6.68;;;3.28;;
37655;SDS011;23498;50.958;3.124;2022-09-01T03:45:59;9.50;;;3.03;;
37655;SDS011;23498;50.958;3.124;2022-09-01T03:48:26;5.47;;;3.28;;
37655;SDS011;23498;50.958;3.124;2022-09-01T03:50:52;9.00;;;3.05;;
37655;SDS011;23498;50.958;3.124;2022-09-01T03:53:19;5.78;;;2.85;;
37655;SDS011;23498;50.958;3.124;2022-09-01T03:55:47;6.57;;;2.85;;
37655;SDS011;23498;50.958;3.124;2022-09-01T03:58:13;5.85;;;3.00;;
37655;SDS011;23498;50.958;3.124;2022-09-01T04:00:43;6.38;;;2.83;;
37655;SDS011;23498;50.958;3.124;2022-09-01T04:03:10;5.82;;;3.17;;
37655;SDS011;23498;50.958;3.124;2022-09-01T04:05:38;4.65;;;2.65;;
37655;SDS011;23498;50.958;3.124;2022-09-01T04:08:05;5.90;;;2.95;;
37655;SDS011;23498;50.958;3.124;2022-09-01T04:10:34;4.75;;;2.92;;
37655;SDS011;23498;50.958;3.124;2022-09-01T04:13:02;5.00;;;2.70;;
37655;SDS011;23498;50.958;3.124;2022-09-01T04:15:29;5.07;;;2.97;;
37655;SDS011;23498;50.958;3.124;2022-09-01T04:17:59;5.57;;;3.38;;
37655;SDS011;23498;50.958;3.124;2022-09-01T04:20:41;5.93;;;2.85;;
37655;SDS011;23498;50.958;3.124;2022-09-01T04:25:46;7.13;;;3.25;;
37655;SDS011;23498;50.958;3.124;2022-09-01T04:28:14;11.38;;;3.40;;
37655;SDS011;23498;50.958;3.124;2022-09-01T04:30:48;8.00;;;3.60;;
37655;SDS011;23498;50.958;3.124;2022-09-01T04:33:14;6.75;;;3.28;;
37655;SDS011;23498;50.958;3.124;2022-09-01T04:35:41;7.45;;;3.00;;
37655;SDS011;23498;50.958;3.124;2022-09-01T04:38:07;4.93;;;3.28;;
37655;SDS011;23498;50.958;3.124;2022-09-01T04:40:37;6.90;;;4.00;;
37655;SDS011;23498;50.958;3.124;2022-09-01T04:43:05;7.38;;;3.28;;
37655;SDS011;23498;50.958;3.124;2022-09-01T04:45:33;5.65;;;3.20;;
37655;SDS011;23498;50.958;3.124;2022-09-01T04:47:59;7.45;;;3.30;;
37655;SDS011;23498;50.958;3.124;2022-09-01T04:50:27;4.70;;;3.08;;
37655;SDS011;23498;50.958;3.124;2022-09-01T04:52:54;8.52;;;3.47;;
37655;SDS011;23498;50.958;3.124;2022-09-01T04:55:22;7.55;;;3.50;;
37655;SDS011;23498;50.958;3.124;2022-09-01T04:57:48;5.97;;;3.22;;
37655;SDS011;23498;50.958;3.124;2022-09-01T05:00:15;8.48;;;3.47;;
37655;SDS011;23498;50.958;3.124;2022-09-01T05:02:49;7.80;;;3.63;;
37655;SDS011;23498;50.958;3.124;2022-09-01T05:05:16;8.60;;;3.75;;
37655;SDS011;23498;50.958;3.124;2022-09-01T05:07:42;7.63;;;3.70;;
37655;SDS011;23498;50.958;3.124;2022-09-01T05:10:08;8.00;;;3.42;;
37655;SDS011;23498;50.958;3.124;2022-09-01T05:12:34;5.63;;;3.40;;
37655;SDS011;23498;50.958;3.124;2022-09-01T05:15:00;6.18;;;3.50;;
37655;SDS011;23498;50.958;3.124;2022-09-01T05:17:30;6.13;;;3.15;;
37655;SDS011;23498;50.958;3.124;2022-09-01T05:19:56;8.63;;;3.88;;
37655;SDS011;23498;50.958;3.124;2022-09-01T05:22:23;9.55;;;4.00;;
37655;SDS011;23498;50.958;3.124;2022-09-01T05:24:49;7.57;;;3.70;;
37655;SDS011;23498;50.958;3.124;2022-09-01T05:27:16;5.57;;;3.85;;
37655;SDS011;23498;50.958;3.124;2022-09-01T05:29:43;12.13;;;4.65;;
37655;SDS011;23498;50.958;3.124;2022-09-01T05:32:11;7.07;;;4.03;;
37655;SDS011;23498;50.958;3.124;2022-09-01T05:34:37;9.55;;;4.15;;
37655;SDS011;23498;50.958;3.124;2022-09-01T05:37:04;8.32;;;3.70;;
37655;SDS011;23498;50.958;3.124;2022-09-01T05:39:32;8.85;;;3.88;;
37655;SDS011;23498;50.958;3.124;2022-09-01T05:41:59;6.88;;;4.28;;
37655;SDS011;23498;50.958;3.124;2022-09-01T05:44:25;7.15;;;4.05;;
37655;SDS011;23498;50.958;3.124;2022-09-01T05:46:51;5.75;;;4.07;;
37655;SDS011;23498;50.958;3.124;2022-09-01T05:49:19;9.10;;;4.55;;
37655;SDS011;23498;50.958;3.124;2022-09-01T05:51:47;10.90;;;5.03;;
37655;SDS011;23498;50.958;3.124;2022-09-01T05:54:14;8.32;;;4.78;;
37655;SDS011;23498;50.958;3.124;2022-09-01T05:56:40;9.93;;;4.55;;
37655;SDS011;23498;50.958;3.124;2022-09-01T05:59:06;9.32;;;4.78;;
37655;SDS011;23498;50.958;3.124;2022-09-01T06:01:34;9.23;;;4.50;;
37655;SDS011;23498;50.958;3.124;2022-09-01T06:04:05;11.13;;;4.65;;
37655;SDS011;23498;50.958;3.124;2022-09-01T06:06:38;6.65;;;4.60;;
37655;SDS011;23498;50.958;3.124;2022-09-01T06:09:06;9.45;;;4.68;;
37655;SDS011;23498;50.958;3.124;2022-09-01T06:11:33;12.75;;;5.10;;
37655;SDS011;23498;50.958;3.124;2022-09-01T06:13:59;11.68;;;4.93;;
37655;SDS011;23498;50.958;3.124;2022-09-01T06:16:26;9.82;;;5.20;;
37655;SDS011;23498;50.958;3.124;2022-09-01T06:18:53;10.48;;;5.30;;
37655;SDS011;23498;50.958;3.124;2022-09-01T06:21:21;12.02;;;5.43;;
37655;SDS011;23498;50.958;3.124;2022-09-01T06:23:48;8.50;;;4.75;;
37655;SDS011;23498;50.958;3.124;2022-09-01T06:26:36;8.55;;;5.20;;
37655;SDS011;23498;50.958;3.124;2022-09-01T06:29:04;9.07;;;5.65;;
37655;SDS011;23498;50.958;3.124;2022-09-01T06:31:32;10.85;;;5.60;;
37655;SDS011;23498;50.958;3.124;2022-09-01T06:34:00;12.40;;;5.60;;
37655;SDS011;23498;50.958;3.124;2022-09-01T06:36:27;13.25;;;5.10;;
37655;SDS011;23498;50.958;3.124;2022-09-01T06:38:53;10.27;;;5.20;;
37655;SDS011;23498;50.958;3.124;2022-09-01T06:41:20;11.52;;;5.80;;
37655;SDS011;23498;50.958;3.124;2022-09-01T06:43:48;9.57;;;5.35;;
37655;SDS011;23498;50.958;3.124;2022-09-01T06:46:15;10.02;;;5.88;;
37655;SDS011;23498;50.958;3.124;2022-09-01T06:48:41;9.15;;;5.30;;
37655;SDS011;23498;50.958;3.124;2022-09-01T06:51:14;8.45;;;5.50;;
37655;SDS011;23498;50.958;3.124;2022-09-01T06:53:41;10.70;;;5.50;;
37655;SDS011;23498;50.958;3.124;2022-09-01T06:56:08;11.73;;;6.05;;
37655;SDS011;23498;50.958;3.124;2022-09-01T06:58:37;9.10;;;5.50;;
37655;SDS011;23498;50.958;3.124;2022-09-01T07:01:09;10.85;;;6.18;;
37655;SDS011;23498;50.958;3.124;2022-09-01T07:03:42;10.07;;;6.03;;
37655;SDS011;23498;50.958;3.124;2022-09-01T07:06:08;13.50;;;6.00;;
37655;SDS011;23498;50.958;3.124;2022-09-01T07:08:35;9.82;;;6.20;;
37655;SDS011;23498;50.958;3.124;2022-09-01T07:11:04;10.88;;;6.57;;
37655;SDS011;23498;50.958;3.124;2022-09-01T07:13:31;10.55;;;6.45;;
37655;SDS011;23498;50.958;3.124;2022-09-01T07:15:59;11.65;;;6.65;;
37655;SDS011;23498;50.958;3.124;2022-09-01T07:18:26;11.82;;;6.38;;
37655;SDS011;23498;50.958;3.124;2022-09-01T07:20:52;11.15;;;6.55;;
37655;SDS011;23498;50.958;3.124;2022-09-01T07:23:19;10.43;;;6.38;;
37655;SDS011;23498;50.958;3.124;2022-09-01T07:25:48;11.57;;;6.53;;
37655;SDS011;23498;50.958;3.124;2022-09-01T07:28:16;11.93;;;6.93;;
37655;SDS011;23498;50.958;3.124;2022-09-01T07:30:44;9.98;;;6.50;;
37655;SDS011;23498;50.958;3.124;2022-09-01T07:33:12;9.45;;;7.03;;
37655;SDS011;23498;50.958;3.124;2022-09-01T07:35:39;13.95;;;7.32;;
37655;SDS011;23498;50.958;3.124;2022-09-01T07:38:05;12.77;;;7.57;;
37655;SDS011;23498;50.958;3.124;2022-09-01T07:40:33;12.55;;;6.82;;
37655;SDS011;23498;50.958;3.124;2022-09-01T07:43:02;12.32;;;7.20;;
37655;SDS011;23498;50.958;3.124;2022-09-01T07:45:32;15.10;;;6.68;;
37655;SDS011;23498;50.958;3.124;2022-09-01T07:47:59;10.43;;;7.03;;
37655;SDS011;23498;50.958;3.124;2022-09-01T07:50:27;11.63;;;7.03;;
37655;SDS011;23498;50.958;3.124;2022-09-01T07:52:54;14.80;;;7.55;;
37655;SDS011;23498;50.958;3.124;2022-09-01T07:55:20;11.75;;;7.22;;
37655;SDS011;23498;50.958;3.124;2022-09-01T07:57:46;12.90;;;7.20;;
37655;SDS011;23498;50.958;3.124;2022-09-01T08:00:12;11.43;;;6.75;;
37655;SDS011;23498;50.958;3.124;2022-09-01T08:02:40;15.15;;;8.15;;
37655;SDS011;23498;50.958;3.124;2022-09-01T08:05:08;13.43;;;7.18;;
37655;SDS011;23498;50.958;3.124;2022-09-01T08:07:35;14.32;;;7.70;;
37655;SDS011;23498;50.958;3.124;2022-09-01T08:10:01;11.82;;;7.20;;
37655;SDS011;23498;50.958;3.124;2022-09-01T08:12:27;13.25;;;7.63;;
37655;SDS011;23498;50.958;3.124;2022-09-01T08:14:53;13.27;;;7.53;;
37655;SDS011;23498;50.958;3.124;2022-09-01T08:17:19;15.30;;;8.27;;
37655;SDS011;23498;50.958;3.124;2022-09-01T08:19:45;11.50;;;8.00;;
37655;SDS011;23498;50.958;3.124;2022-09-01T08:22:12;16.63;;;8.55;;
37655;SDS011;23498;50.958;3.124;2022-09-01T08:24:39;12.02;;;8.30;;
37655;SDS011;23498;50.958;3.124;2022-09-01T08:27:05;16.08;;;8.90;;
37655;SDS011;23498;50.958;3.124;2022-09-01T08:29:31;11.65;;;8.55;;
37655;SDS011;23498;50.958;3.124;2022-09-01T08:31:57;12.57;;;8.50;;
37655;SDS011;23498;50.958;3.124;2022-09-01T08:34:23;12.77;;;8.68;;
37655;SDS011;23498;50.958;3.124;2022-09-01T08:36:49;18.30;;;9.10;;
37655;SDS011;23498;50.958;3.124;2022-09-01T08:39:15;12.30;;;8.60;;
37655;SDS011;23498;50.958;3.124;2022-09-01T08:41:42;13.02;;;8.75;;
37655;SDS011;23498;50.958;3.124;2022-09-01T08:44:16;15.43;;;8.18;;
37655;SDS011;23498;50.958;3.124;2022-09-01T08:46:44;15.93;;;8.30;;
37655;SDS011;23498;50.958;3.124;2022-09-01T08:49:20;15.60;;;9.38;;
37655;SDS011;23498;50.958;3.124;2022-09-01T08:54:25;15.10;;;8.70;;
37655;SDS011;23498;50.958;3.124;2022-09-01T08:56:55;15.02;;;9.02;;
37655;SDS011;23498;50.958;3.124;2022-09-01T08:59:22;19.08;;;8.93;;
37655;SDS011;23498;50.958;3.124;2022-09-01T09:09:13;15.55;;;8.95;;
37655;SDS011;23498;50.958;3.124;2022-09-01T09:11:51;13.30;;;8.43;;
37655;SDS011;23498;50.958;3.124;2022-09-01T09:17:05;20.80;;;9.80;;
37655;SDS011;23498;50.958;3.124;2022-09-01T09:19:33;15.95;;;9.25;;
37655;SDS011;23498;50.958;3.124;2022-09-01T09:22:01;12.85;;;8.45;;
37655;SDS011;23498;50.958;3.124;2022-09-01T09:24:33;14.90;;;8.85;;
37655;SDS011;23498;50.958;3.124;2022-09-01T09:27:24;13.10;;;9.00;;
37655;SDS011;23498;50.958;3.124;2022-09-01T09:29:52;13.50;;;8.95;;
37655;SDS011;23498;50.958;3.124;2022-09-01T09:32:19;14.48;;;9.20;;
37655;SDS011;23498;50.958;3.124;2022-09-01T09:34:46;15.35;;;8.77;;
37655;SDS011;23498;50.958;3.124;2022-09-01T09:39:41;17.08;;;9.52;;
37655;SDS011;23498;50.958;3.124;2022-09-01T09:42:12;13.60;;;9.00;;
37655;SDS011;23498;50.958;3.124;2022-09-01T09:44:46;14.05;;;8.88;;
37655;SDS011;23498;50.958;3.124;2022-09-01T09:50:13;13.60;;;8.75;;
37655;SDS011;23498;50.958;3.124;2022-09-01T09:52:39;12.60;;;8.85;;
37655;SDS011;23498;50.958;3.124;2022-09-01T09:55:18;14.32;;;8.73;;
37655;SDS011;23498;50.958;3.124;2022-09-01T09:57:45;11.73;;;9.18;;
37655;SDS011;23498;50.958;3.124;2022-09-01T10:02:45;10.60;;;8.60;;
37655;SDS011;23498;50.958;3.124;2022-09-01T10:07:54;12.07;;;8.65;;
37655;SDS011;23498;50.958;3.124;2022-09-01T10:12:52;15.30;;;8.27;;
37655;SDS011;23498;50.958;3.124;2022-09-01T10:15:20;12.93;;;8.88;;
37655;SDS011;23498;50.958;3.124;2022-09-01T10:17:47;13.45;;;8.13;;
37655;SDS011;23498;50.958;3.124;2022-09-01T10:20:16;11.70;;;7.30;;
37655;SDS011;23498;50.958;3.124;2022-09-01T10:22:45;13.73;;;8.45;;
37655;SDS011;23498;50.958;3.124;2022-09-01T10:25:13;11.27;;;7.68;;
37655;SDS011;23498;50.958;3.124;2022-09-01T10:27:40;11.02;;;7.60;;
37655;SDS011;23498;50.958;3.124;2022-09-01T10:30:09;12.00;;;7.35;;
37655;SDS011;23498;50.958;3.124;2022-09-01T10:32:39;10.95;;;7.95;;
37655;SDS011;23498;50.958;3.124;2022-09-01T10:35:06;12.15;;;6.47;;
37655;SDS011;23498;50.958;3.124;2022-09-01T10:37:35;12.85;;;7.40;;
37655;SDS011;23498;50.958;3.124;2022-09-01T10:42:44;15.68;;;7.28;;
37655;SDS011;23498;50.958;3.124;2022-09-01T10:45:18;8.93;;;6.10;;
37655;SDS011;23498;50.958;3.124;2022-09-01T10:47:47;9.93;;;7.05;;
37655;SDS011;23498;50.958;3.124;2022-09-01T10:55:09;7.40;;;5.57;;
37655;SDS011;23498;50.958;3.124;2022-09-01T10:57:40;9.10;;;6.18;;
37655;SDS011;23498;50.958;3.124;2022-09-01T11:05:43;7.70;;;5.10;;
37655;SDS011;23498;50.958;3.124;2022-09-01T11:08:22;8.48;;;5.10;;
37655;SDS011;23498;50.958;3.124;2022-09-01T11:11:11;9.55;;;4.70;;
37655;SDS011;23498;50.958;3.124;2022-09-01T11:13:47;6.30;;;3.90;;
37655;SDS011;23498;50.958;3.124;2022-09-01T11:18:50;5.93;;;4.10;;
37655;SDS011;23498;50.958;3.124;2022-09-01T11:21:24;6.25;;;4.13;;
37655;SDS011;23498;50.958;3.124;2022-09-01T11:23:52;7.07;;;4.47;;
37655;SDS011;23498;50.958;3.124;2022-09-01T11:26:44;11.05;;;4.47;;
37655;SDS011;23498;50.958;3.124;2022-09-01T11:29:48;5.78;;;3.85;;
37655;SDS011;23498;50.958;3.124;2022-09-01T11:31:56;5.90;;;3.70;;
37655;SDS011;23498;50.958;3.124;2022-09-01T11:34:23;5.97;;;4.15;;
37655;SDS011;23498;50.958;3.124;2022-09-01T11:36:51;7.00;;;3.90;;
37655;SDS011;23498;50.958;3.124;2022-09-01T11:47:09;6.75;;;3.92;;
37655;SDS011;23498;50.958;3.124;2022-09-01T11:49:36;7.25;;;4.53;;
37655;SDS011;23498;50.958;3.124;2022-09-01T11:52:03;6.60;;;4.15;;
37655;SDS011;23498;50.958;3.124;2022-09-01T11:54:38;5.18;;;3.78;;
37655;SDS011;23498;50.958;3.124;2022-09-01T11:57:21;5.22;;;3.70;;
37655;SDS011;23498;50.958;3.124;2022-09-01T11:59:48;5.35;;;3.95;;
37655;SDS011;23498;50.958;3.124;2022-09-01T12:02:18;5.65;;;3.90;;
37655;SDS011;23498;50.958;3.124;2022-09-01T12:04:46;5.65;;;3.85;;
37655;SDS011;23498;50.958;3.124;2022-09-01T12:07:22;4.90;;;3.95;;
37655;SDS011;23498;50.958;3.124;2022-09-01T12:09:49;4.85;;;3.65;;
37655;SDS011;23498;50.958;3.124;2022-09-01T12:12:35;5.93;;;3.45;;
37655;SDS011;23498;50.958;3.124;2022-09-01T12:15:07;4.78;;;3.80;;
37655;SDS011;23498;50.958;3.124;2022-09-01T12:17:34;4.90;;;3.58;;
37655;SDS011;23498;50.958;3.124;2022-09-01T12:22:46;5.43;;;3.65;;
37655;SDS011;23498;50.958;3.124;2022-09-01T12:25:23;5.97;;;3.65;;
37655;SDS011;23498;50.958;3.124;2022-09-01T12:27:50;6.18;;;3.58;;
37655;SDS011;23498;50.958;3.124;2022-09-01T12:30:16;7.03;;;3.88;;
37655;SDS011;23498;50.958;3.124;2022-09-01T12:32:42;7.47;;;3.80;;
37655;SDS011;23498;50.958;3.124;2022-09-01T12:35:13;6.40;;;3.55;;
37655;SDS011;23498;50.958;3.124;2022-09-01T12:37:42;4.90;;;3.50;;
37655;SDS011;23498;50.958;3.124;2022-09-01T12:40:20;7.60;;;3.60;;
37655;SDS011;23498;50.958;3.124;2022-09-01T12:42:49;5.97;;;3.50;;
37655;SDS011;23498;50.958;3.124;2022-09-01T12:45:37;7.30;;;3.55;;
37655;SDS011;23498;50.958;3.124;2022-09-01T12:48:02;7.55;;;3.60;;
37655;SDS011;23498;50.958;3.124;2022-09-01T12:52:57;6.07;;;3.45;;
37655;SDS011;23498;50.958;3.124;2022-09-01T12:57:56;5.72;;;3.60;;
37655;SDS011;23498;50.958;3.124;2022-09-01T13:00:23;6.40;;;3.00;;
37655;SDS011;23498;50.958;3.124;2022-09-01T13:02:50;7.28;;;3.47;;
37655;SDS011;23498;50.958;3.124;2022-09-01T13:07:55;8.27;;;3.45;;
37655;SDS011;23498;50.958;3.124;2022-09-01T13:10:25;5.50;;;3.28;;
37655;SDS011;23498;50.958;3.124;2022-09-01T13:12:52;5.20;;;3.00;;
37655;SDS011;23498;50.958;3.124;2022-09-01T13:15:19;4.88;;;3.15;;
37655;SDS011;23498;50.958;3.124;2022-09-01T13:17:45;8.27;;;3.78;;
37655;SDS011;23498;50.958;3.124;2022-09-01T13:20:12;4.20;;;3.20;;
37655;SDS011;23498;50.958;3.124;2022-09-01T13:22:38;4.78;;;3.50;;
37655;SDS011;23498;50.958;3.124;2022-09-01T13:25:06;5.25;;;3.25;;
37655;SDS011;23498;50.958;3.124;2022-09-01T13:27:34;5.63;;;3.67;;
37655;SDS011;23498;50.958;3.124;2022-09-01T13:30:02;5.35;;;3.00;;
37655;SDS011;23498;50.958;3.124;2022-09-01T13:32:28;5.80;;;3.20;;
37655;SDS011;23498;50.958;3.124;2022-09-01T13:34:54;5.30;;;3.30;;
37655;SDS011;23498;50.958;3.124;2022-09-01T13:37:20;10.38;;;3.47;;
37655;SDS011;23498;50.958;3.124;2022-09-01T13:39:46;5.43;;;3.38;;
37655;SDS011;23498;50.958;3.124;2022-09-01T13:42:13;7.28;;;3.80;;
37655;SDS011;23498;50.958;3.124;2022-09-01T13:44:39;5.97;;;3.58;;
37655;SDS011;23498;50.958;3.124;2022-09-01T13:47:05;4.68;;;3.20;;
37655;SDS011;23498;50.958;3.124;2022-09-01T13:49:31;5.57;;;3.47;;
37655;SDS011;23498;50.958;3.124;2022-09-01T13:51:57;4.75;;;3.60;;
37655;SDS011;23498;50.958;3.124;2022-09-01T13:54:23;8.10;;;3.70;;
37655;SDS011;23498;50.958;3.124;2022-09-01T13:56:49;5.80;;;3.60;;
37655;SDS011;23498;50.958;3.124;2022-09-01T13:59:16;4.15;;;3.30;;
37655;SDS011;23498;50.958;3.124;2022-09-01T14:01:42;5.43;;;3.70;;
37655;SDS011;23498;50.958;3.124;2022-09-01T14:04:08;4.57;;;3.50;;
37655;SDS011;23498;50.958;3.124;2022-09-01T14:06:38;6.53;;;3.42;;
37655;SDS011;23498;50.958;3.124;2022-09-01T14:09:05;5.20;;;3.20;;
37655;SDS011;23498;50.958;3.124;2022-09-01T14:11:31;6.70;;;3.30;;
37655;SDS011;23498;50.958;3.124;2022-09-01T14:13:57;7.60;;;3.50;;
37655;SDS011;23498;50.958;3.124;2022-09-01T14:16:23;5.88;;;3.50;;
37655;SDS011;23498;50.958;3.124;2022-09-01T14:18:49;5.40;;;3.55;;
37655;SDS011;23498;50.958;3.124;2022-09-01T14:21:15;5.82;;;3.50;;
37655;SDS011;23498;50.958;3.124;2022-09-01T14:23:41;4.32;;;2.97;;
37655;SDS011;23498;50.958;3.124;2022-09-01T14:26:11;6.60;;;3.25;;
37655;SDS011;23498;50.958;3.124;2022-09-01T14:28:38;6.15;;;3.22;;
37655;SDS011;23498;50.958;3.124;2022-09-01T14:31:07;5.95;;;3.20;;
37655;SDS011;23498;50.958;3.124;2022-09-01T14:33:33;5.05;;;3.17;;
37655;SDS011;23498;50.958;3.124;2022-09-01T14:35:59;6.30;;;3.17;;
37655;SDS011;23498;50.958;3.124;2022-09-01T14:38:25;5.28;;;2.90;;
37655;SDS011;23498;50.958;3.124;2022-09-01T14:40:51;5.65;;;3.05;;
37655;SDS011;23498;50.958;3.124;2022-09-01T14:43:17;6.25;;;2.90;;
37655;SDS011;23498;50.958;3.124;2022-09-01T14:45:44;5.15;;;2.95;;
37655;SDS011;23498;50.958;3.124;2022-09-01T14:48:12;5.82;;;3.38;;
37655;SDS011;23498;50.958;3.124;2022-09-01T14:50:40;4.10;;;2.88;;
37655;SDS011;23498;50.958;3.124;2022-09-01T14:53:06;7.18;;;2.90;;
37655;SDS011;23498;50.958;3.124;2022-09-01T14:55:32;6.18;;;2.92;;
37655;SDS011;23498;50.958;3.124;2022-09-01T14:57:58;6.45;;;2.70;;
37655;SDS011;23498;50.958;3.124;2022-09-01T15:00:25;4.78;;;3.00;;
37655;SDS011;23498;50.958;3.124;2022-09-01T15:02:51;6.88;;;3.00;;
37655;SDS011;23498;50.958;3.124;2022-09-01T15:05:18;3.85;;;2.83;;
37655;SDS011;23498;50.958;3.124;2022-09-01T15:07:44;7.55;;;2.90;;
37655;SDS011;23498;50.958;3.124;2022-09-01T15:10:11;7.22;;;3.25;;
37655;SDS011;23498;50.958;3.124;2022-09-01T15:12:37;4.25;;;2.80;;
37655;SDS011;23498;50.958;3.124;2022-09-01T15:15:04;6.38;;;3.17;;
37655;SDS011;23498;50.958;3.124;2022-09-01T15:17:30;5.10;;;2.85;;
37655;SDS011;23498;50.958;3.124;2022-09-01T15:19:56;5.15;;;2.78;;
37655;SDS011;23498;50.958;3.124;2022-09-01T15:22:46;5.90;;;3.00;;
37655;SDS011;23498;50.958;3.124;2022-09-01T15:25:12;5.03;;;2.95;;
37655;SDS011;23498;50.958;3.124;2022-09-01T15:27:39;6.18;;;2.78;;
37655;SDS011;23498;50.958;3.124;2022-09-01T15:30:05;4.47;;;2.58;;
37655;SDS011;23498;50.958;3.124;2022-09-01T15:32:38;4.95;;;2.80;;
37655;SDS011;23498;50.958;3.124;2022-09-01T15:35:04;4.45;;;2.70;;
37655;SDS011;23498;50.958;3.124;2022-09-01T15:37:30;6.30;;;2.70;;
37655;SDS011;23498;50.958;3.124;2022-09-01T15:39:56;6.25;;;2.90;;
37655;SDS011;23498;50.958;3.124;2022-09-01T15:42:22;5.07;;;2.67;;
37655;SDS011;23498;50.958;3.124;2022-09-01T15:44:48;7.07;;;2.83;;
37655;SDS011;23498;50.958;3.124;2022-09-01T15:47:14;9.63;;;2.33;;
37655;SDS011;23498;50.958;3.124;2022-09-01T15:49:40;7.88;;;2.90;;
37655;SDS011;23498;50.958;3.124;2022-09-01T15:52:06;4.60;;;2.60;;
37655;SDS011;23498;50.958;3.124;2022-09-01T15:54:32;4.90;;;2.40;;
37655;SDS011;23498;50.958;3.124;2022-09-01T15:57:01;4.22;;;2.60;;